Ana Sayfa
METAR-TAF:

METAR-TAF

Havaalanları :

Lancaster Airport

Lancaster, Pensilvanya, Amerika Birleşik Devletleri

Enlem: 40-07-13N, Boylam: 076-17-40W, yükseklik: 123 m

Güncel hava durumu gözlemi

Rapor saat 03:53 UTC de 26 dakika önce yapıldı.
Rüzgar kuzeybatıdan 10 kt
Sıcaklık 10°C
Nem 37%
Basınç 1008 hPa
Görüş mesafesi: 16.1 km
Açık gökyüzü

METAR: KLNS 030353Z AUTO 31010KT 10SM CLR 10/M04 A2978 RMK AO2 SLP083 T01001044

Saat: 00:19 (04:19 UTC)

Tahmin

Rapor saat 02:57 UTC de 1 saat ve 22 dakika önce yapıldı.
Ayın 03'si saat 03 UTC'den ayın 03'si saat 24 UTC'ye kadar geçerli Tahmin
Rüzgar kuzey/kuzeybatıdan 15 kt
Görüş mesafesi: 10 km
Açık gökyüzü
Ayın 03'si saat 1000 UTC'den
Rüzgar kuzeybatıdan 17 kt ve 27 kt'a kadar ani rüzgarlar
Görüş mesafesi: 10 km
5000 ft yükseklikte parçalı çok bulutlu
Civarda sağanaklar

TAF: KLNS 030257Z 0303/0324 33015KT P6SM SKC FM031000 32017G27KT P6SM VCSH BKN050

4.000'den fazla havaalanı için hava durumu gözlemleri ve tahminleri (METAR ve TAF raporları).

Kullanılabilir istasyonlar harita üzerinde sarı ve kırmızı noktalarla gösterilir.

İstasyonun adını görmek için fareyi noktanın üzerinde gezdirin.

Sonrasında hava gözlem ve tahminlerini görmek için tıklayın.

Haritayı değiştirmek için: yaklaştırmak için siyah artı işaretli yeşil düğmeye ve uzaklaştırmak için de eksi işaretli düğmeye hızla tıklayın; bitişik haritalar için yeşil okları kullanın.


METAR-TAF: